createdAt,value
2019-01-14T00:00:33.443Z,6.40
2019-01-14T00:03:12.648Z,6.40
2019-01-14T00:06:00.740Z,6.30
2019-01-14T00:08:41.395Z,6.30
2019-01-14T00:11:21.956Z,6.30
2019-01-14T00:14:02.545Z,6.30
2019-01-14T00:16:43.305Z,6.30
2019-01-14T00:19:24.044Z,6.20
2019-01-14T00:22:04.616Z,6.20
2019-01-14T00:24:44.984Z,6.20
2019-01-14T00:27:25.720Z,6.20
2019-01-14T00:30:06.556Z,6.10
2019-01-14T00:32:47.232Z,6.10
2019-01-14T00:35:27.915Z,6.10
2019-01-14T00:38:08.624Z,6.10
2019-01-14T00:40:49.560Z,6.10
2019-01-14T00:43:30.413Z,6.10
2019-01-14T00:46:11.134Z,6.10
2019-01-14T00:48:52.401Z,6.10
2019-01-14T00:51:33.500Z,6.10
2019-01-14T00:54:14.284Z,6.10
2019-01-14T00:56:54.959Z,6.10
2019-01-14T00:59:35.777Z,6.10
2019-01-14T01:02:16.478Z,6.10
2019-01-14T01:04:57.353Z,6.10
2019-01-14T01:07:38.046Z,6.10
2019-01-14T01:10:18.705Z,6.10
2019-01-14T01:12:59.716Z,6.10
2019-01-14T01:15:40.841Z,6.10
2019-01-14T01:18:21.656Z,6.10
2019-01-14T01:21:01.276Z,6.10
2019-01-14T01:23:41.945Z,6.10
2019-01-14T01:29:05.176Z,6.10
2019-01-14T01:31:45.561Z,6.10
2019-01-14T01:34:26.489Z,6.10
2019-01-14T01:37:07.564Z,6.10
2019-01-14T01:39:48.593Z,6.10
2019-01-14T01:42:29.607Z,6.10
2019-01-14T01:45:11.249Z,6.10
2019-01-14T01:47:52.100Z,6.10
2019-01-14T01:50:33.147Z,6.10
2019-01-14T01:53:14.218Z,6.10
2019-01-14T01:55:54.852Z,6.10
2019-01-14T01:58:35.947Z,6.10
2019-01-14T02:01:16.735Z,6.10
2019-01-14T02:03:57.573Z,6.10
2019-01-14T02:06:39.311Z,6.10
2019-01-14T02:09:20.188Z,6.10
2019-01-14T02:12:00.988Z,6.10
2019-01-14T02:14:30.003Z,6.00
2019-01-14T02:20:19.624Z,6.10
2019-01-14T02:23:00.647Z,6.00
2019-01-14T02:25:41.607Z,6.10
2019-01-14T02:31:27.700Z,6.00
2019-01-14T02:34:08.369Z,6.00
2019-01-14T02:36:49.093Z,6.00
2019-01-14T02:39:30.025Z,6.00
2019-01-14T02:42:10.731Z,5.90
2019-01-14T02:44:51.767Z,5.90
2019-01-14T02:47:32.663Z,5.90
2019-01-14T02:50:13.284Z,5.90
2019-01-14T02:52:53.853Z,5.90
2019-01-14T02:55:22.854Z,5.90
2019-01-14T02:58:11.164Z,5.90
2019-01-14T03:00:52.133Z,5.90
2019-01-14T03:03:32.820Z,5.90
2019-01-14T03:06:13.572Z,5.80
2019-01-14T03:08:54.691Z,5.80
2019-01-14T03:11:35.676Z,5.80
2019-01-14T03:14:16.760Z,5.80
2019-01-14T03:16:57.509Z,5.80
2019-01-14T03:19:38.672Z,5.80
2019-01-14T03:22:19.320Z,5.80
2019-01-14T03:25:00.325Z,5.80
2019-01-14T03:27:41.269Z,5.80
2019-01-14T03:30:22.029Z,5.80
2019-01-14T03:33:02.857Z,5.80
2019-01-14T03:35:43.848Z,5.80
2019-01-14T03:38:24.908Z,5.80
2019-01-14T03:41:04.203Z,5.80
2019-01-14T03:46:50.559Z,5.80
2019-01-14T03:49:38.669Z,5.80
2019-01-14T03:52:19.016Z,5.90
2019-01-14T03:54:59.760Z,5.90
2019-01-14T03:57:40.122Z,5.90
2019-01-14T04:00:21.175Z,5.90
2019-01-14T04:03:02.035Z,5.90
2019-01-14T04:08:48.131Z,5.90
2019-01-14T04:11:29.249Z,5.90
2019-01-14T04:14:10.123Z,5.90
2019-01-14T04:16:51.293Z,5.90
2019-01-14T04:19:31.910Z,5.90
2019-01-14T04:22:12.996Z,5.90
2019-01-14T04:24:53.760Z,5.80
2019-01-14T04:27:34.437Z,5.80
2019-01-14T04:30:15.004Z,5.80
2019-01-14T04:32:55.676Z,5.80
2019-01-14T04:35:36.141Z,5.80
2019-01-14T04:38:17.449Z,5.50
2019-01-14T04:40:58.300Z,5.70
2019-01-14T04:43:38.876Z,5.70
2019-01-14T04:46:19.621Z,5.70
2019-01-14T04:49:00.581Z,5.60
2019-01-14T04:51:41.287Z,5.60
2019-01-14T04:54:22.463Z,5.60
2019-01-14T04:57:08.217Z,5.60
2019-01-14T04:59:45.952Z,5.60
2019-01-14T05:02:26.753Z,5.60
2019-01-14T05:05:07.720Z,5.60
2019-01-14T05:07:48.750Z,5.60
2019-01-14T05:10:29.385Z,5.60
2019-01-14T05:13:10.004Z,5.60
2019-01-14T05:15:51.104Z,5.60
2019-01-14T05:18:31.830Z,5.60
2019-01-14T05:21:12.732Z,5.60
2019-01-14T05:23:53.523Z,5.60
2019-01-14T05:26:34.771Z,5.60
2019-01-14T05:29:15.218Z,5.60
2019-01-14T05:31:56.139Z,5.60
2019-01-14T05:34:36.700Z,5.60
2019-01-14T05:37:17.524Z,5.60
2019-01-14T05:39:58.311Z,5.60
2019-01-14T05:42:39.086Z,5.60
2019-01-14T05:45:19.844Z,5.60
2019-01-14T05:48:01.306Z,5.60
2019-01-14T05:50:41.668Z,5.60
2019-01-14T05:53:22.460Z,5.60
2019-01-14T05:56:03.416Z,5.60
2019-01-14T05:58:44.072Z,5.60
2019-01-14T06:01:24.674Z,5.60
2019-01-14T06:04:05.524Z,5.60
2019-01-14T06:06:46.452Z,5.60
2019-01-14T06:09:27.205Z,5.60
2019-01-14T06:12:07.937Z,5.60
2019-01-14T06:14:48.842Z,5.60
2019-01-14T06:17:30.103Z,5.60
2019-01-14T06:20:11.304Z,5.60
2019-01-14T06:22:52.101Z,5.60
2019-01-14T06:25:32.975Z,5.60
2019-01-14T06:28:13.928Z,5.50
2019-01-14T06:30:54.924Z,5.40
2019-01-14T06:33:36.163Z,5.10
2019-01-14T06:36:16.763Z,5.00
2019-01-14T06:38:57.416Z,4.90
2019-01-14T06:41:38.394Z,4.80
2019-01-14T06:44:19.069Z,4.80
2019-01-14T06:46:59.887Z,4.80
2019-01-14T06:49:40.862Z,4.80
2019-01-14T06:52:24.876Z,4.70
2019-01-14T06:55:05.700Z,4.70
2019-01-14T06:57:46.214Z,4.70
2019-01-14T07:00:27.027Z,4.70
2019-01-14T07:03:07.977Z,4.60
2019-01-14T07:05:48.615Z,4.60
2019-01-14T07:08:29.790Z,4.60
2019-01-14T07:11:11.048Z,4.60
2019-01-14T07:13:52.160Z,4.60
2019-01-14T07:16:33.136Z,4.50
2019-01-14T07:19:13.843Z,4.50
2019-01-14T07:21:54.616Z,4.50
2019-01-14T07:24:35.735Z,4.60
2019-01-14T07:27:16.436Z,4.50
2019-01-14T07:29:57.221Z,4.50
2019-01-14T07:32:37.916Z,4.60
2019-01-14T07:35:18.489Z,4.60
2019-01-14T07:38:06.441Z,4.60
2019-01-14T07:40:42.102Z,4.60
2019-01-14T07:43:21.324Z,4.60
2019-01-14T07:46:09.412Z,4.60
2019-01-14T07:48:50.324Z,4.60
2019-01-14T07:51:31.324Z,4.60
2019-01-14T07:54:12.424Z,4.50
2019-01-14T07:56:53.835Z,4.50
2019-01-14T07:59:34.757Z,4.50
2019-01-14T08:02:15.747Z,4.50
2019-01-14T08:04:56.624Z,4.50
2019-01-14T08:07:37.611Z,4.50
2019-01-14T08:10:18.422Z,4.50
2019-01-14T08:12:59.237Z,4.60
2019-01-14T08:15:40.152Z,4.60
2019-01-14T08:18:20.984Z,4.70
2019-01-14T08:21:01.743Z,4.80
2019-01-14T08:23:42.688Z,4.70
2019-01-14T08:26:23.723Z,4.80
2019-01-14T08:29:04.660Z,4.80
2019-01-14T08:31:45.450Z,4.80
2019-01-14T08:34:26.329Z,4.90
2019-01-14T08:37:08.481Z,4.90
2019-01-14T08:39:49.104Z,4.90
2019-01-14T08:42:29.905Z,4.90
2019-01-14T08:45:10.564Z,5.00
2019-01-14T08:47:52.032Z,5.00
2019-01-14T08:50:32.526Z,5.00
2019-01-14T08:53:13.696Z,5.00
2019-01-14T08:55:54.500Z,5.00
2019-01-14T08:58:35.332Z,5.00
2019-01-14T09:01:16.100Z,5.00
2019-01-14T09:03:57.075Z,5.10
2019-01-14T09:06:37.756Z,5.10
2019-01-14T09:09:16.971Z,5.10
2019-01-14T09:12:05.072Z,5.10
2019-01-14T09:14:45.979Z,5.10
2019-01-14T09:17:26.925Z,5.10
2019-01-14T09:20:07.705Z,5.10
2019-01-14T09:22:48.808Z,5.10
2019-01-14T09:25:29.641Z,5.10
2019-01-14T09:28:10.479Z,5.10
2019-01-14T09:30:39.375Z,5.10
2019-01-14T09:33:27.511Z,5.10
2019-01-14T09:36:15.704Z,5.10
2019-01-14T09:38:56.496Z,5.10
2019-01-14T09:41:37.532Z,5.10
2019-01-14T09:44:18.762Z,5.10
2019-01-14T09:46:59.595Z,5.10
2019-01-14T09:49:40.295Z,5.10
2019-01-14T09:52:21.184Z,5.10
2019-01-14T09:55:05.676Z,5.10
2019-01-14T09:57:45.205Z,5.10
2019-01-14T10:00:25.936Z,5.10
2019-01-14T10:03:07.368Z,5.10
2019-01-14T10:05:47.825Z,5.00
2019-01-14T10:08:28.691Z,4.60
2019-01-14T10:11:09.438Z,4.30
2019-01-14T10:13:50.330Z,4.10
2019-01-14T10:16:31.136Z,4.00
2019-01-14T10:19:11.977Z,4.00
2019-01-14T10:21:52.713Z,3.90
2019-01-14T10:24:33.659Z,3.90
2019-01-14T10:27:14.490Z,3.90
2019-01-14T10:29:55.384Z,3.90
2019-01-14T10:32:36.501Z,4.00
2019-01-14T10:35:17.381Z,4.00
2019-01-14T10:37:58.344Z,4.00
2019-01-14T10:40:39.208Z,4.10
2019-01-14T10:43:20.469Z,4.20
2019-01-14T10:46:01.501Z,4.30
2019-01-14T10:48:42.210Z,4.70
2019-01-14T10:51:23.097Z,5.20
2019-01-14T10:54:04.561Z,5.40
2019-01-14T10:56:45.713Z,5.50
2019-01-14T10:59:26.863Z,5.40
2019-01-14T11:02:07.887Z,5.00
2019-01-14T11:04:48.391Z,5.30
2019-01-14T11:07:29.216Z,5.30
2019-01-14T11:10:10.072Z,5.30
2019-01-14T11:12:51.381Z,5.30
2019-01-14T11:15:32.523Z,5.30
2019-01-14T11:18:14.789Z,5.20
2019-01-14T11:20:55.560Z,5.20
2019-01-14T11:23:36.513Z,5.20
2019-01-14T11:26:17.252Z,5.10
2019-01-14T11:28:58.344Z,5.10
2019-01-14T11:31:38.957Z,5.10
2019-01-14T11:34:19.884Z,5.10
2019-01-14T11:37:00.720Z,5.10
2019-01-14T11:39:41.563Z,5.10
2019-01-14T11:42:22.848Z,5.20
2019-01-14T11:45:03.510Z,5.20
2019-01-14T11:47:44.083Z,5.30
2019-01-14T11:50:24.702Z,5.30
2019-01-14T11:53:05.560Z,5.40
2019-01-14T11:55:46.546Z,5.40
2019-01-14T11:58:26.957Z,5.40
2019-01-14T12:01:08.590Z,5.40
2019-01-14T12:03:49.080Z,5.40
2019-01-14T12:06:30.271Z,5.40
2019-01-14T12:08:59.327Z,5.40
2019-01-14T12:11:47.348Z,5.50
2019-01-14T12:14:16.275Z,5.50
2019-01-14T12:17:04.377Z,5.40
2019-01-14T12:19:45.077Z,5.10
2019-01-14T12:22:25.933Z,4.90
2019-01-14T12:25:07.026Z,4.70
2019-01-14T12:27:47.748Z,4.60
2019-01-14T12:30:28.663Z,4.50
2019-01-14T12:33:09.628Z,4.40
2019-01-14T12:35:50.567Z,4.40
2019-01-14T12:38:29.674Z,4.40
2019-01-14T12:41:11.416Z,4.40
2019-01-14T12:43:51.967Z,4.40
2019-01-14T12:46:32.390Z,4.50
2019-01-14T12:49:12.976Z,4.60
2019-01-14T12:51:53.319Z,4.60
2019-01-14T12:54:34.036Z,4.60
2019-01-14T12:57:14.477Z,4.50
2019-01-14T12:59:55.500Z,4.40
2019-01-14T13:02:36.624Z,4.40
2019-01-14T13:05:17.434Z,4.30
2019-01-14T13:11:11.259Z,4.40
2019-01-14T13:13:52.257Z,4.40
2019-01-14T13:16:32.764Z,4.50
2019-01-14T13:19:13.675Z,4.50
2019-01-14T13:21:54.809Z,4.50
2019-01-14T13:24:35.404Z,4.60
2019-01-14T13:27:16.381Z,4.60
2019-01-14T13:29:57.003Z,4.60
2019-01-14T13:32:37.784Z,4.70
2019-01-14T13:35:18.628Z,4.60
2019-01-14T13:37:59.282Z,4.70
2019-01-14T13:40:40.057Z,4.70
2019-01-14T13:43:09.180Z,4.70
2019-01-14T13:45:38.271Z,4.70
2019-01-14T13:48:07.316Z,4.60
2019-01-14T13:50:36.273Z,4.70
2019-01-14T13:53:05.340Z,4.60
2019-01-14T13:55:34.326Z,4.60
2019-01-14T13:58:03.348Z,4.60
2019-01-14T14:00:32.412Z,4.60
2019-01-14T14:03:02.068Z,4.50
2019-01-14T14:05:31.645Z,4.50
2019-01-14T14:08:00.632Z,4.50
2019-01-14T14:10:33.488Z,4.50
2019-01-14T14:13:02.917Z,4.50
2019-01-14T14:15:32.518Z,4.50
2019-01-14T14:18:01.714Z,4.50
2019-01-14T14:20:31.176Z,4.50
2019-01-14T14:23:00.409Z,4.60
2019-01-14T14:25:29.776Z,4.60
2019-01-14T14:27:58.735Z,4.70
2019-01-14T14:30:36.491Z,4.70
2019-01-14T14:33:06.452Z,4.70
2019-01-14T14:35:35.816Z,4.70
2019-01-14T14:38:06.108Z,4.70
2019-01-14T14:40:35.107Z,4.60
2019-01-14T14:43:04.136Z,4.50
2019-01-14T14:45:33.123Z,4.30
2019-01-14T14:48:02.129Z,4.20
2019-01-14T14:50:31.084Z,4.00
2019-01-14T14:53:02.523Z,3.90
2019-01-14T14:55:31.484Z,3.90
2019-01-14T14:58:00.513Z,3.80
2019-01-14T15:00:29.515Z,3.80
2019-01-14T15:02:58.440Z,3.80
2019-01-14T15:05:27.402Z,3.80
2019-01-14T15:08:03.688Z,3.70
2019-01-14T15:10:32.656Z,3.70
2019-01-14T15:13:01.652Z,3.70
2019-01-14T15:15:30.628Z,3.70
2019-01-14T15:17:59.623Z,3.60
2019-01-14T15:20:28.605Z,3.60
2019-01-14T15:22:57.708Z,3.60
2019-01-14T15:25:26.678Z,3.60
2019-01-14T15:27:55.636Z,3.50
2019-01-14T15:30:26.556Z,3.50
2019-01-14T15:32:55.498Z,3.50
2019-01-14T15:35:25.855Z,3.50
2019-01-14T15:37:54.902Z,3.50
2019-01-14T15:40:24.338Z,3.50
2019-01-14T15:42:53.471Z,3.50
2019-01-14T15:45:23.908Z,3.50
2019-01-14T15:47:53.172Z,3.40
2019-01-14T15:50:22.139Z,3.40
2019-01-14T15:52:51.180Z,3.40
2019-01-14T15:55:23.312Z,3.10
2019-01-14T15:57:52.456Z,3.40
2019-01-14T16:00:21.562Z,3.40
2019-01-14T16:02:50.990Z,3.40
2019-01-14T16:05:20.050Z,3.40
2019-01-14T16:07:49.096Z,3.40
2019-01-14T16:10:23.487Z,3.40
2019-01-14T16:12:52.519Z,3.40
2019-01-14T16:15:21.553Z,3.40
2019-01-14T16:17:50.739Z,3.30
2019-01-14T16:20:21.695Z,3.30
2019-01-14T16:22:51.235Z,3.30
2019-01-14T16:25:20.069Z,3.20
2019-01-14T16:27:49.203Z,3.20
2019-01-14T16:30:28.575Z,3.20
2019-01-14T16:32:57.996Z,3.20
2019-01-14T16:35:27.053Z,3.10
2019-01-14T16:37:56.343Z,3.10
2019-01-14T16:40:25.533Z,3.10
2019-01-14T16:42:55.716Z,3.10
2019-01-14T16:45:26.283Z,3.10
2019-01-14T16:47:55.384Z,3.10
2019-01-14T16:50:24.356Z,3.00
2019-01-14T16:52:53.390Z,3.00
2019-01-14T16:55:40.157Z,3.00
2019-01-14T16:58:10.622Z,3.00
2019-01-14T17:00:39.529Z,2.90
2019-01-14T17:03:08.596Z,2.90
2019-01-14T17:05:37.801Z,2.90
2019-01-14T17:08:06.940Z,2.90
2019-01-14T17:10:35.835Z,2.80
2019-01-14T17:13:05.081Z,3.10
2019-01-14T17:15:34.040Z,2.80
2019-01-14T17:18:03.921Z,2.70
2019-01-14T17:20:32.814Z,2.70
2019-01-14T17:23:01.845Z,2.70
2019-01-14T17:25:30.738Z,2.70
2019-01-14T17:27:59.735Z,2.70
2019-01-14T17:30:28.903Z,2.30
2019-01-14T17:32:57.928Z,2.80
2019-01-14T17:35:26.828Z,2.80
2019-01-14T17:37:55.779Z,2.80
2019-01-14T17:40:24.601Z,2.90
2019-01-14T17:42:53.653Z,2.90
2019-01-14T17:45:22.547Z,2.90
2019-01-14T17:47:51.583Z,2.90
2019-01-14T17:50:20.901Z,3.00
2019-01-14T17:52:50.133Z,3.00
2019-01-14T17:55:19.076Z,3.00
2019-01-14T17:57:48.107Z,3.00
2019-01-14T18:00:22.668Z,3.00
2019-01-14T18:02:51.622Z,3.00
2019-01-14T18:05:20.570Z,2.90
2019-01-14T18:07:49.536Z,2.80
2019-01-14T18:10:19.245Z,2.80
2019-01-14T18:12:48.360Z,2.70
2019-01-14T18:15:17.488Z,2.60
2019-01-14T18:17:46.455Z,2.50
2019-01-14T18:20:17.435Z,2.50
2019-01-14T18:22:46.411Z,2.40
2019-01-14T18:25:15.858Z,2.40
2019-01-14T18:27:45.926Z,2.30
2019-01-14T18:30:19.998Z,2.20
2019-01-14T18:32:49.168Z,2.20
2019-01-14T18:35:18.263Z,2.10
2019-01-14T18:37:47.339Z,2.10
2019-01-14T18:40:18.771Z,2.10
2019-01-14T18:42:48.354Z,2.00
2019-01-14T18:45:19.095Z,2.00
2019-01-14T18:47:48.415Z,1.90
2019-01-14T18:50:20.197Z,1.90
2019-01-14T18:52:49.211Z,1.80
2019-01-14T18:55:18.304Z,1.80
2019-01-14T18:57:47.395Z,1.80
2019-01-14T19:00:18.916Z,1.70
2019-01-14T19:02:48.113Z,1.70
2019-01-14T19:05:17.186Z,1.70
2019-01-14T19:07:46.173Z,1.70
2019-01-14T19:10:15.366Z,1.70
2019-01-14T19:12:44.751Z,1.80
2019-01-14T19:15:15.611Z,1.80
2019-01-14T19:17:44.582Z,1.80
2019-01-14T19:20:16.427Z,1.90
2019-01-14T19:22:45.522Z,1.90
2019-01-14T19:25:14.937Z,2.00
2019-01-14T19:27:45.465Z,2.00
2019-01-14T19:30:17.128Z,2.10
2019-01-14T19:32:47.245Z,2.10
2019-01-14T19:35:17.521Z,2.20
2019-01-14T19:37:47.786Z,2.20
2019-01-14T19:40:19.495Z,2.30
2019-01-14T19:42:50.087Z,2.30
2019-01-14T19:45:21.422Z,2.40
2019-01-14T19:47:52.495Z,2.40
2019-01-14T19:50:25.105Z,2.40
2019-01-14T19:52:56.342Z,2.50
2019-01-14T19:55:26.808Z,2.40
2019-01-14T19:57:57.431Z,2.50
2019-01-14T20:00:37.105Z,2.50
2019-01-14T20:03:07.006Z,2.50
2019-01-14T20:05:36.272Z,2.60
2019-01-14T20:08:06.539Z,2.60
2019-01-14T20:10:36.811Z,2.60
2019-01-14T20:13:09.441Z,2.60
2019-01-14T20:15:39.592Z,2.60
2019-01-14T20:18:08.724Z,2.60
2019-01-14T20:20:37.773Z,2.70
2019-01-14T20:23:06.739Z,2.70
2019-01-14T20:25:35.787Z,2.70
2019-01-14T20:28:04.759Z,2.70
2019-01-14T20:30:33.836Z,2.70
2019-01-14T20:33:02.808Z,2.70
2019-01-14T20:35:31.882Z,2.70
2019-01-14T20:38:00.854Z,2.70
2019-01-14T20:40:29.933Z,2.70
2019-01-14T20:42:58.917Z,2.80
2019-01-14T20:45:27.955Z,2.80
2019-01-14T20:47:56.871Z,2.80
2019-01-14T20:50:25.932Z,2.80
2019-01-14T20:52:54.967Z,2.80
2019-01-14T20:55:24.003Z,2.80
2019-01-14T20:57:53.031Z,2.80
2019-01-14T21:00:24.561Z,2.80
2019-01-14T21:02:53.590Z,2.90
2019-01-14T21:05:23.490Z,2.90
2019-01-14T21:07:52.448Z,2.90
2019-01-14T21:10:21.504Z,2.90
2019-01-14T21:12:50.399Z,2.90
2019-01-14T21:15:19.367Z,2.90
2019-01-14T21:17:48.385Z,2.80
2019-01-14T21:20:19.550Z,2.90
2019-01-14T21:22:48.558Z,2.90
2019-01-14T21:25:17.529Z,2.80
2019-01-14T21:27:46.856Z,2.80
2019-01-14T21:30:17.892Z,2.80
2019-01-14T21:32:46.884Z,2.80
2019-01-14T21:35:15.777Z,2.80
2019-01-14T21:37:44.820Z,2.70
2019-01-14T21:40:14.805Z,2.60
2019-01-14T21:42:44.412Z,2.60
2019-01-14T21:45:14.188Z,2.60
2019-01-14T21:47:43.175Z,2.50
2019-01-14T21:50:16.910Z,2.50
2019-01-14T21:52:45.986Z,2.40
2019-01-14T21:55:17.046Z,2.40
2019-01-14T21:57:45.987Z,2.30
2019-01-14T22:00:17.242Z,2.30
2019-01-14T22:02:46.504Z,2.30
2019-01-14T22:05:15.416Z,2.20
2019-01-14T22:07:44.406Z,2.30
2019-01-14T22:10:15.676Z,2.30
2019-01-14T22:12:44.732Z,2.20
2019-01-14T22:15:13.763Z,2.30
2019-01-14T22:17:42.765Z,2.20
2019-01-14T22:20:14.400Z,2.30
2019-01-14T22:22:43.317Z,2.20
2019-01-14T22:25:12.278Z,2.30
2019-01-14T22:27:41.295Z,2.30
2019-01-14T22:30:13.732Z,2.30
2019-01-14T22:32:42.674Z,2.30
2019-01-14T22:35:11.488Z,2.30
2019-01-14T22:37:40.479Z,2.30
2019-01-14T22:40:10.268Z,2.40
2019-01-14T22:42:39.199Z,2.40
2019-01-14T22:45:08.249Z,2.40
2019-01-14T22:47:37.182Z,2.40
2019-01-14T22:50:07.924Z,2.40
2019-01-14T22:52:36.923Z,2.50
2019-01-14T22:55:06.550Z,2.50
2019-01-14T22:57:35.571Z,2.50
2019-01-14T23:00:19.348Z,2.50
2019-01-14T23:02:48.343Z,2.60
2019-01-14T23:05:17.340Z,2.60
2019-01-14T23:07:46.187Z,2.60
2019-01-14T23:10:15.150Z,2.60
2019-01-14T23:12:44.516Z,2.60
2019-01-14T23:15:14.135Z,2.60
2019-01-14T23:17:43.194Z,2.60
2019-01-14T23:20:12.474Z,2.60
2019-01-14T23:22:41.512Z,2.60
2019-01-14T23:25:10.809Z,2.60
2019-01-14T23:27:39.807Z,2.70
2019-01-14T23:30:08.806Z,2.70
2019-01-14T23:32:56.915Z,2.60
2019-01-14T23:35:44.936Z,2.70
2019-01-14T23:38:25.784Z,2.70
2019-01-14T23:41:06.776Z,2.70
2019-01-14T23:43:48.005Z,2.60
2019-01-14T23:46:28.665Z,2.60
2019-01-14T23:49:09.511Z,2.60
2019-01-14T23:51:50.780Z,2.60
2019-01-14T23:54:36.994Z,2.50
2019-01-14T23:57:13.464Z,2.50
2019-01-14T23:59:54.209Z,2.50
